Time;durP1;ratioP1;P1;durP2;ratioP2;P2;SDS_P1;SDS_P2;PMS_P1;PMS_P2;Temp;Humidity;BMP_temperature;BMP_pressure;BME280_temperature;BME280_humidity;BME280_pressure;Samples;Min_cycle;Max_cycle;Signal;HPM_P1;HPM_P2
2021/06/03 00:00:26;;;;;;;4.05;2.05;;;;;;;19.11;59.82;101485.75;5071344;28;20541;-66
2021/06/03 00:02:54;;;;;;;4.78;2.00;;;;;;;19.12;59.88;101486.63;5071037;28;20044;-66
2021/06/03 00:05:25;;;;;;;4.15;2.28;;;;;;;19.11;60.16;101480.41;5072239;28;20037;-66
2021/06/03 00:07:52;;;;;;;6.05;1.90;;;;;;;19.01;60.71;101476.03;5071538;28;20127;-66
2021/06/03 00:10:24;;;;;;;8.10;2.28;;;;;;;19.04;60.48;101476.00;5068813;28;20135;-65
2021/06/03 00:12:51;;;;;;;5.40;2.45;;;;;;;18.91;60.55;101470.75;5065184;28;20065;-66
2021/06/03 00:15:19;;;;;;;3.22;2.17;;;;;;;18.70;60.93;101463.78;5069071;28;20080;-66
2021/06/03 00:17:46;;;;;;;5.10;2.30;;;;;;;18.69;60.67;101470.91;5065301;28;20442;-66
2021/06/03 00:20:16;;;;;;;4.88;1.90;;;;;;;18.73;60.23;101468.19;5066243;28;20040;-65
2021/06/03 00:22:44;;;;;;;4.57;2.22;;;;;;;18.75;60.44;101467.31;5069288;28;20118;-66
2021/06/03 00:25:12;;;;;;;4.00;2.20;;;;;;;18.71;60.79;101462.84;5068657;28;20408;-66
2021/06/03 00:27:39;;;;;;;3.10;1.92;;;;;;;18.76;60.51;101457.50;5067662;28;20116;-65
2021/06/03 00:30:08;;;;;;;3.05;2.17;;;;;;;18.78;60.91;101456.56;5069434;28;20128;-66
2021/06/03 00:32:35;;;;;;;5.20;2.50;;;;;;;18.82;60.42;101462.78;5071348;28;20659;-66
2021/06/03 00:35:04;;;;;;;5.18;2.13;;;;;;;18.84;60.73;101455.66;5069808;28;20123;-67
2021/06/03 00:37:31;;;;;;;5.72;1.95;;;;;;;18.84;60.86;101464.53;5071690;28;20044;-65
2021/06/03 00:40:00;;;;;;;4.65;1.95;;;;;;;18.84;61.09;101463.69;5070456;28;20037;-66
2021/06/03 00:42:28;;;;;;;6.68;2.15;;;;;;;18.86;60.62;101464.53;5071489;28;20543;-66
2021/06/03 00:44:55;;;;;;;3.55;1.90;;;;;;;18.87;60.67;101471.66;5071642;28;20063;-66
2021/06/03 00:47:22;;;;;;;5.05;2.20;;;;;;;18.82;61.02;101469.03;5070996;28;20049;-67
2021/06/03 00:49:49;;;;;;;3.20;2.05;;;;;;;18.80;60.79;101468.16;5070575;28;20132;-65
2021/06/03 00:52:17;;;;;;;4.80;2.13;;;;;;;18.72;61.41;101478.00;5070999;28;20116;-66
2021/06/03 00:54:44;;;;;;;4.45;2.10;;;;;;;18.73;61.23;101473.53;5069757;28;20060;-66
2021/06/03 00:57:13;;;;;;;6.40;2.20;;;;;;;18.74;61.07;101475.31;5070534;28;20091;-66
2021/06/03 00:59:40;;;;;;;3.88;2.00;;;;;;;18.71;61.23;101469.09;5069385;28;20109;-65
2021/06/03 01:02:07;;;;;;;4.25;2.10;;;;;;;18.71;61.51;101469.09;5065813;28;20040;-65
2021/06/03 01:04:34;;;;;;;5.90;1.80;;;;;;;18.70;61.32;101466.44;5070424;28;20072;-66
2021/06/03 01:07:02;;;;;;;5.13;2.17;;;;;;;18.69;61.36;101464.66;5070401;28;20041;-66
2021/06/03 01:09:31;;;;;;;2.35;1.85;;;;;;;18.68;61.78;101473.59;5068206;28;20033;-66
2021/06/03 01:12:07;;;;;;;4.38;2.47;;;;;;;18.71;61.60;101470.88;5070059;28;20036;-65
2021/06/03 01:14:40;;;;;;;3.45;1.95;;;;;;;18.66;61.70;101476.25;5070034;28;20075;-66
2021/06/03 01:17:10;;;;;;;5.35;2.30;;;;;;;18.65;61.70;101476.25;5070564;28;20060;-66
2021/06/03 01:19:40;;;;;;;5.28;2.00;;;;;;;18.62;61.84;101476.31;5070366;28;20154;-67
2021/06/03 01:22:12;;;;;;;3.55;1.83;;;;;;;18.55;62.76;101482.53;5069773;28;20111;-66
2021/06/03 01:24:43;;;;;;;4.50;2.17;;;;;;;18.53;62.43;101487.00;5070131;28;20064;-66
2021/06/03 01:27:13;;;;;;;4.53;1.95;;;;;;;18.38;62.92;101479.09;5069452;28;20064;-65
2021/06/03 01:29:45;;;;;;;2.92;1.92;;;;;;;18.30;63.22;101471.97;5070193;28;20064;-66
2021/06/03 01:32:13;;;;;;;6.88;2.28;;;;;;;18.36;62.89;101475.50;5069209;28;20036;-67
2021/06/03 01:34:41;;;;;;;6.47;2.30;;;;;;;18.32;63.00;101470.16;5068413;28;20055;-66
2021/06/03 01:37:08;;;;;;;5.15;2.20;;;;;;;18.39;63.01;101478.16;5069230;28;20036;-65
2021/06/03 01:39:37;;;;;;;3.75;2.03;;;;;;;18.45;63.16;101479.00;5069415;28;20060;-66
2021/06/03 01:42:07;;;;;;;5.35;2.40;;;;;;;18.49;63.14;101469.22;5065830;28;20047;-66
2021/06/03 01:44:34;;;;;;;4.88;2.15;;;;;;;18.45;63.32;101470.09;5069833;28;20034;-66
2021/06/03 01:47:03;;;;;;;4.38;1.80;;;;;;;18.41;63.30;101477.25;5069636;28;20491;-66
2021/06/03 01:49:30;;;;;;;5.38;2.10;;;;;;;18.41;63.34;101473.69;5069510;28;20036;-66
2021/06/03 01:52:00;;;;;;;6.68;2.50;;;;;;;18.44;63.23;101466.56;5070026;28;20230;-66
2021/06/03 01:54:28;;;;;;;7.00;2.95;;;;;;;18.40;63.81;101474.59;5068898;28;20044;-66
2021/06/03 01:56:56;;;;;;;7.97;2.10;;;;;;;18.27;63.87;101473.75;5068694;28;20095;-66
2021/06/03 01:59:24;;;;;;;6.22;2.47;;;;;;;18.31;63.75;101481.75;5069214;28;20124;-66
2021/06/03 02:01:51;;;;;;;6.63;2.40;;;;;;;18.33;64.11;101485.31;5069046;28;20036;-66
2021/06/03 02:04:18;;;;;;;5.28;2.28;;;;;;;18.37;63.69;101498.69;5068771;28;20139;-66
2021/06/03 02:06:45;;;;;;;3.80;2.10;;;;;;;18.40;63.97;101493.31;5068556;28;20400;-66
2021/06/03 02:09:14;;;;;;;4.78;2.40;;;;;;;18.44;64.07;101493.31;5067744;28;20567;-66
2021/06/03 02:11:43;;;;;;;4.03;2.25;;;;;;;18.44;64.36;101495.09;5069300;28;20540;-66
2021/06/03 02:14:14;;;;;;;3.72;1.98;;;;;;;18.40;64.27;101485.28;5068880;28;20041;-65
2021/06/03 02:16:47;;;;;;;5.38;2.00;;;;;;;18.41;63.95;101487.06;5067946;28;20131;-67
2021/06/03 02:19:17;;;;;;;4.35;1.95;;;;;;;18.36;64.58;101488.88;5069286;28;20051;-66
2021/06/03 02:21:47;;;;;;;4.53;2.30;;;;;;;18.32;64.41;101491.56;5069325;28;20123;-66
2021/06/03 02:24:15;;;;;;;4.18;2.60;;;;;;;18.34;64.51;101491.56;5068441;28;20121;-66
2021/06/03 02:26:44;;;;;;;4.40;1.92;;;;;;;18.39;64.95;101487.06;5068482;28;20115;-66
2021/06/03 02:29:12;;;;;;;5.07;2.35;;;;;;;18.48;64.71;101496.84;5068738;28;20040;-67
2021/06/03 02:31:42;;;;;;;3.35;2.00;;;;;;;18.48;64.53;101500.41;5069344;28;20037;-66
2021/06/03 02:34:09;;;;;;;5.28;2.30;;;;;;;18.53;64.24;101498.59;5067608;28;20087;-66
2021/06/03 02:36:36;;;;;;;5.60;2.50;;;;;;;18.58;64.15;101499.47;5065528;28;20136;-66
2021/06/03 02:39:06;;;;;;;3.83;2.30;;;;;;;18.62;64.49;101503.03;5068850;28;20044;-66
2021/06/03 02:41:34;;;;;;;6.78;2.75;;;;;;;18.58;64.75;101503.94;5068919;28;20048;-66
2021/06/03 02:44:02;;;;;;;7.07;2.40;;;;;;;18.56;64.69;101500.41;5069171;28;20422;-66
2021/06/03 02:46:29;;;;;;;5.75;2.17;;;;;;;18.56;64.77;101497.72;5067780;28;20501;-66
2021/06/03 02:48:58;;;;;;;6.57;2.72;;;;;;;18.58;64.50;101491.47;5068829;28;20132;-66
2021/06/03 02:51:25;;;;;;;9.05;2.58;;;;;;;18.51;64.80;101492.34;5067829;28;20060;-67
2021/06/03 02:53:52;;;;;;;6.18;2.53;;;;;;;18.56;65.09;101492.38;5067894;28;20044;-66
2021/06/03 02:56:19;;;;;;;4.20;2.50;;;;;;;18.59;65.06;101482.53;5069029;28;20052;-66
2021/06/03 02:58:47;;;;;;;3.83;2.20;;;;;;;18.58;65.24;101475.41;5068796;28;20116;-66
2021/06/03 03:01:14;;;;;;;5.38;2.25;;;;;;;18.63;65.51;101487.00;5067791;28;20067;-66
2021/06/03 03:03:40;;;;;;;4.30;2.40;;;;;;;18.70;65.24;101494.09;5068644;28;20116;-66
2021/06/03 03:06:09;;;;;;;5.53;2.33;;;;;;;18.74;65.39;101492.28;5068859;28;20048;-66
2021/06/03 03:08:36;;;;;;;4.65;2.33;;;;;;;18.75;65.56;101486.03;5068500;28;20112;-66
2021/06/03 03:11:04;;;;;;;7.68;2.30;;;;;;;18.81;65.52;101495.78;5068108;28;20037;-65
2021/06/03 03:13:32;;;;;;;4.22;2.10;;;;;;;18.88;65.80;101492.19;5068318;28;20465;-66
2021/06/03 03:15:59;;;;;;;4.85;2.35;;;;;;;18.88;65.69;101484.16;5065108;28;20119;-65
2021/06/03 03:18:27;;;;;;;5.15;2.10;;;;;;;18.97;66.10;101487.63;5066413;28;20124;-65
2021/06/03 03:20:54;;;;;;;4.20;1.95;;;;;;;19.08;66.08;101477.75;5065525;28;20045;-66
2021/06/03 03:23:23;;;;;;;5.90;2.10;;;;;;;19.22;65.82;101479.44;5064729;28;20039;-66
2021/06/03 03:25:50;;;;;;;6.85;2.75;;;;;;;19.30;65.46;101481.13;5069017;28;20044;-66
2021/06/03 03:28:17;;;;;;;3.75;2.30;;;;;;;19.37;65.21;101488.22;5068441;28;20067;-66
2021/06/03 03:30:44;;;;;;;4.50;1.60;;;;;;;19.42;65.01;101488.19;5067420;28;20070;-66
2021/06/03 03:33:13;;;;;;;4.90;2.10;;;;;;;19.45;64.65;101491.72;5064468;28;20050;-66
2021/06/03 03:35:41;;;;;;;6.00;2.40;;;;;;;19.48;64.42;101491.72;5069040;28;20056;-67
2021/06/03 03:38:08;;;;;;;2.83;1.70;;;;;;;19.55;64.28;101500.59;5068079;28;20607;-66
2021/06/03 03:40:37;;;;;;;3.65;1.48;;;;;;;19.64;63.79;101495.13;5068070;28;20116;-66
2021/06/03 03:43:04;;;;;;;3.83;1.60;;;;;;;19.71;63.37;101512.94;5067560;28;20039;-65
2021/06/03 03:45:32;;;;;;;2.72;1.65;;;;;;;19.77;63.13;101518.22;5066539;28;20096;-66
2021/06/03 03:48:00;;;;;;;4.22;1.60;;;;;;;19.81;63.14;101511.94;5069094;28;20396;-66
2021/06/03 03:50:28;;;;;;;2.95;1.60;;;;;;;19.82;62.89;101512.84;5069435;28;20039;-66
2021/06/03 03:52:55;;;;;;;3.55;1.60;;;;;;;19.87;62.92;101511.00;5070306;28;20045;-67
2021/06/03 03:55:22;;;;;;;4.45;2.13;;;;;;;20.18;62.64;101520.47;5071265;28;20584;-66
2021/06/03 03:57:51;;;;;;;2.03;1.45;;;;;;;20.55;62.35;101520.91;5072066;28;20229;-65
2021/06/03 04:00:21;;;;;;;6.22;1.52;;;;;;;20.74;61.22;101520.69;5071412;28;20496;-67
2021/06/03 04:02:48;;;;;;;3.55;1.50;;;;;;;20.75;60.97;101523.31;5068757;28;20046;-67
2021/06/03 04:05:16;;;;;;;3.08;1.45;;;;;;;20.83;61.04;101528.59;5070252;28;20028;-67
2021/06/03 04:07:44;;;;;;;5.10;1.35;;;;;;;20.83;60.61;101528.59;5071383;28;20115;-67
2021/06/03 04:10:14;;;;;;;3.28;1.55;;;;;;;20.80;60.05;101542.06;5071470;28;20091;-66
2021/06/03 04:12:41;;;;;;;3.83;1.50;;;;;;;20.72;60.03;101539.47;5071183;28;20055;-66
2021/06/03 04:15:12;;;;;;;5.18;1.77;;;;;;;20.71;59.92;101539.50;5071913;28;20128;-66
2021/06/03 04:17:39;;;;;;;3.90;1.73;;;;;;;20.65;59.79;101536.00;5071413;28;20051;-67
2021/06/03 04:20:08;;;;;;;4.30;1.63;;;;;;;20.75;59.35;101539.44;5070805;28;20044;-66
2021/06/03 04:22:36;;;;;;;3.50;1.42;;;;;;;20.82;59.46;101538.44;5070446;28;20158;-66
2021/06/03 04:25:04;;;;;;;6.82;1.88;;;;;;;20.88;59.49;101537.44;5071613;28;20132;-66
2021/06/03 04:27:30;;;;;;;4.38;1.67;;;;;;;20.97;59.39;101521.22;5070554;28;20111;-66
2021/06/03 04:29:57;;;;;;;5.97;2.00;;;;;;;21.03;59.18;101527.38;5071351;28;20037;-66
2021/06/03 04:32:27;;;;;;;3.75;1.58;;;;;;;21.09;59.09;101529.97;5070622;28;20385;-66
2021/06/03 04:34:54;;;;;;;2.78;1.30;;;;;;;21.16;59.04;101522.75;5070817;28;20033;-66
2021/06/03 04:37:22;;;;;;;6.72;2.10;;;;;;;21.20;58.75;101526.28;5070794;28;20044;-67
2021/06/03 04:39:49;;;;;;;3.50;1.48;;;;;;;21.59;58.23;101531.00;5067806;28;20098;-66
2021/06/03 04:42:16;;;;;;;2.30;1.25;;;;;;;21.62;58.21;101533.63;5067890;28;20494;-66
2021/06/03 04:44:43;;;;;;;6.28;1.67;;;;;;;21.48;58.29;101517.72;5063677;28;20106;-65
2021/06/03 04:47:10;;;;;;;4.18;1.63;;;;;;;21.38;58.24;101510.75;5066802;28;20400;-66
2021/06/03 04:49:39;;;;;;;5.68;1.38;;;;;;;21.63;58.32;101516.59;5069383;28;21539;-66
2021/06/03 04:54:47;;;;;;;3.60;1.40;;;;;;;21.78;56.94;101510.94;5069690;28;20071;-66
2021/06/03 04:57:14;;;;;;;3.92;1.50;;;;;;;22.05;56.62;101505.97;5070362;28;20128;-67
2021/06/03 04:59:42;;;;;;;4.00;1.40;;;;;;;22.77;55.32;101518.84;5068769;28;20049;-66
2021/06/03 05:02:08;;;;;;;2.97;1.38;;;;;;;23.71;53.96;101508.44;5070138;28;20128;-67
2021/06/03 05:04:36;;;;;;;3.50;1.20;;;;;;;23.74;53.26;101511.94;5070450;28;20055;-67
2021/06/03 05:07:04;;;;;;;5.00;1.27;;;;;;;23.32;53.32;101521.09;5070941;28;20038;-66
2021/06/03 05:09:31;;;;;;;6.57;1.60;;;;;;;23.46;52.81;101518.94;5069446;28;20055;-67
2021/06/03 05:11:58;;;;;;;3.88;1.30;;;;;;;23.23;53.43;101529.41;5065542;28;20044;-67
2021/06/03 05:14:25;;;;;;;4.03;1.38;;;;;;;23.14;53.37;101533.22;5059871;28;20124;-67
2021/06/03 05:16:52;;;;;;;2.03;0.93;;;;;;;23.10;53.02;101541.41;5065494;28;20058;-67
2021/06/03 05:19:19;;;;;;;3.95;1.80;;;;;;;23.13;52.92;101534.13;5070704;28;20119;-67
2021/06/03 05:21:46;;;;;;;6.20;1.70;;;;;;;23.39;52.35;101534.38;5068221;28;20047;-67
2021/06/03 05:24:15;;;;;;;3.33;1.20;;;;;;;24.15;51.47;101550.41;5070374;28;20454;-67
2021/06/03 05:26:42;;;;;;;7.10;1.55;;;;;;;24.32;51.31;101552.63;5069186;28;20032;-67
2021/06/03 05:29:14;;;;;;;6.88;1.38;;;;;;;24.54;50.12;101552.00;5054026;28;20055;-67
2021/06/03 05:31:41;;;;;;;5.10;1.25;;;;;;;25.38;48.83;101558.38;5063218;28;20056;-66
2021/06/03 05:34:08;;;;;;;4.03;1.23;;;;;;;24.92;49.38;101566.19;5068378;28;20469;-67
2021/06/03 05:36:35;;;;;;;1.73;0.90;;;;;;;25.73;48.22;101561.75;5058980;28;20125;-67
2021/06/03 05:39:03;;;;;;;5.72;0.95;;;;;;;26.77;45.93;101559.75;5069902;28;20116;-67
2021/06/03 05:41:32;;;;;;;2.97;1.02;;;;;;;27.26;44.89;101561.41;5055365;28;20044;-67
2021/06/03 05:43:59;;;;;;;4.47;1.02;;;;;;;27.08;45.04;101555.84;5067749;28;20036;-66
2021/06/03 05:46:27;;;;;;;3.15;0.82;;;;;;;26.83;44.84;101569.47;5067161;28;20090;-67
2021/06/03 05:48:54;;;;;;;4.03;1.00;;;;;;;27.32;44.07;101581.97;5066113;28;20036;-67
2021/06/03 05:51:21;;;;;;;3.03;0.93;;;;;;;27.34;43.59;101582.78;5069014;28;20043;-67
2021/06/03 05:53:48;;;;;;;0.90;0.60;;;;;;;26.91;43.79;101575.50;5053340;28;20128;-67
2021/06/03 05:56:15;;;;;;;2.88;0.80;;;;;;;26.67;44.12;101577.28;5065562;28;20036;-66
2021/06/03 05:58:43;;;;;;;1.90;0.82;;;;;;;26.69;43.76;101579.94;5066633;28;20519;-67
2021/06/03 06:01:10;;;;;;;2.60;1.00;;;;;;;25.80;44.92;101571.41;5068520;28;20124;-66
2021/06/03 06:03:40;;;;;;;1.95;0.95;;;;;;;25.42;45.63;101575.38;5069390;28;20447;-67
2021/06/03 06:06:22;;;;;;;1.73;1.00;;;;;;;26.46;44.65;101583.50;5068848;28;20672;-67
2021/06/03 06:08:51;;;;;;;3.17;1.02;;;;;;;27.37;42.43;101582.69;5065586;28;20041;-67
2021/06/03 06:11:18;;;;;;;6.72;1.40;;;;;;;27.33;41.95;101590.03;5066575;28;20157;-67
2021/06/03 06:13:47;;;;;;;6.20;1.00;;;;;;;27.29;41.75;101592.94;5065287;28;20063;-67
2021/06/03 06:16:15;;;;;;;2.72;0.95;;;;;;;26.91;42.68;101589.91;5066028;28;20040;-66
2021/06/03 06:18:43;;;;;;;1.38;0.93;;;;;;;27.16;41.94;101586.25;5068855;28;20405;-66
2021/06/03 06:21:11;;;;;;;3.15;0.95;;;;;;;27.40;41.63;101593.38;5067986;28;20032;-67
2021/06/03 06:23:40;;;;;;;3.58;0.80;;;;;;;27.44;42.09;101603.16;5067353;28;20123;-66
2021/06/03 06:26:08;;;;;;;5.70;0.80;;;;;;;27.76;41.76;101599.16;5068183;28;20094;-66
2021/06/03 06:28:35;;;;;;;3.58;0.98;;;;;;;28.06;41.20;101608.69;5067639;28;20052;-67
2021/06/03 06:31:05;;;;;;;3.33;0.88;;;;;;;28.46;40.23;101613.28;5069267;28;20041;-66
2021/06/03 06:33:34;;;;;;;2.95;1.00;;;;;;;28.63;40.02;101609.78;5068479;28;20050;-66
2021/06/03 06:36:01;;;;;;;4.35;0.80;;;;;;;28.75;39.63;101601.09;5069006;28;20036;-67
2021/06/03 06:38:28;;;;;;;3.45;0.70;;;;;;;28.75;38.98;101616.53;5069011;28;20037;-67
2021/06/03 06:40:56;;;;;;;3.67;0.82;;;;;;;28.96;38.87;101604.63;5068547;28;20036;-67
2021/06/03 06:43:23;;;;;;;1.63;0.80;;;;;;;29.15;38.57;101613.69;5068396;28;20044;-67
2021/06/03 06:45:51;;;;;;;1.92;0.73;;;;;;;29.25;38.25;101597.81;5068811;28;20039;-67
2021/06/03 06:48:20;;;;;;;2.63;0.70;;;;;;;29.16;38.23;101610.00;5068573;28;20107;-67
2021/06/03 06:50:49;;;;;;;3.55;1.00;;;;;;;29.07;38.43;101605.03;5067472;28;20071;-67
2021/06/03 06:53:17;;;;;;;1.67;0.70;;;;;;;29.15;38.73;101604.63;5063672;28;20041;-67
2021/06/03 06:55:44;;;;;;;2.25;0.70;;;;;;;28.53;38.71;101614.78;5055025;28;20067;-67
2021/06/03 06:58:11;;;;;;;3.50;0.63;;;;;;;28.11;39.66;101608.47;5068607;28;20067;-67
2021/06/03 07:00:40;;;;;;;2.05;0.80;;;;;;;28.24;38.97;101617.88;5068568;28;20473;-68
2021/06/03 07:03:10;;;;;;;2.45;0.90;;;;;;;28.10;39.36;101604.88;5069127;28;20127;-68
2021/06/03 07:05:41;;;;;;;1.85;0.70;;;;;;;27.98;39.56;101607.25;5069083;28;20133;-67
2021/06/03 07:08:08;;;;;;;3.08;1.05;;;;;;;28.20;39.78;101610.84;5068791;28;20137;-67
2021/06/03 07:10:35;;;;;;;1.75;0.80;;;;;;;27.91;39.66;101614.78;5069056;28;20132;-66
2021/06/03 07:13:02;;;;;;;2.35;0.90;;;;;;;27.79;39.59;101622.56;5069041;28;20127;-67
2021/06/03 07:15:31;;;;;;;2.20;0.98;;;;;;;28.08;39.75;101614.06;5069154;28;20128;-66
2021/06/03 07:17:58;;;;;;;1.63;0.70;;;;;;;28.23;38.82;101616.13;5069025;28;20093;-67
2021/06/03 07:20:25;;;;;;;5.78;1.30;;;;;;;28.15;39.40;101629.19;5067187;28;20116;-66
2021/06/03 07:23:03;;;;;;;4.75;0.93;;;;;;;28.19;38.97;101632.63;5051149;28;20614;-68
2021/06/03 07:25:32;;;;;;;1.33;0.80;;;;;;;28.45;39.09;101627.81;5051001;28;20041;-67
2021/06/03 07:27:59;;;;;;;1.80;1.02;;;;;;;28.59;38.45;101620.88;5052145;28;20448;-67
2021/06/03 07:30:27;;;;;;;1.40;0.80;;;;;;;28.90;38.38;101624.84;5051963;28;20041;-67
2021/06/03 07:32:56;;;;;;;2.00;0.70;;;;;;;29.14;38.23;101617.38;5072532;28;20040;-67
2021/06/03 07:35:24;;;;;;;1.00;0.80;;;;;;;29.23;37.63;101614.19;5070921;28;20101;-67
2021/06/03 07:37:51;;;;;;;2.42;0.70;;;;;;;29.39;37.50;101622.53;5072594;28;20059;-67
2021/06/03 07:40:21;;;;;;;2.95;0.80;;;;;;;29.32;36.99;101621.94;5071721;28;20037;-67
2021/06/03 07:42:49;;;;;;;1.05;0.70;;;;;;;28.97;37.21;101628.16;5071069;28;20040;-67
2021/06/03 07:45:20;;;;;;;3.40;0.70;;;;;;;28.74;38.12;101634.69;5072200;28;20046;-67
2021/06/03 07:47:47;;;;;;;1.08;0.63;;;;;;;28.26;38.49;101632.31;5071256;28;20032;-67
2021/06/03 07:50:15;;;;;;;2.28;0.88;;;;;;;28.40;39.11;101628.97;5071437;28;20131;-69
2021/06/03 07:52:43;;;;;;;3.30;0.90;;;;;;;28.47;38.96;101625.91;5072318;28;20526;-67
2021/06/03 07:55:15;;;;;;;2.78;0.60;;;;;;;28.61;37.93;101635.28;5072119;28;20048;-67
2021/06/03 07:57:45;;;;;;;1.65;1.10;;;;;;;28.58;38.44;101633.56;5071370;28;20072;-67
2021/06/03 08:00:15;;;;;;;1.88;0.90;;;;;;;28.94;38.38;101639.19;5071876;28;20040;-68
2021/06/03 08:02:44;;;;;;;1.30;0.85;;;;;;;28.91;38.08;101648.38;5071626;28;20114;-67
2021/06/03 08:05:12;;;;;;;2.88;0.95;;;;;;;28.45;38.88;101643.22;5072039;28;20037;-67
2021/06/03 08:07:39;;;;;;;2.47;0.82;;;;;;;27.98;39.59;101648.88;5071961;28;20136;-67
2021/06/03 08:10:08;;;;;;;2.53;0.85;;;;;;;27.81;39.68;101655.97;5071912;28;20033;-67
2021/06/03 08:12:36;;;;;;;1.25;0.80;;;;;;;27.61;40.27;101646.81;5072068;28;20093;-67
2021/06/03 08:15:08;;;;;;;3.65;0.90;;;;;;;27.32;40.31;101644.34;5071634;28;20059;-66
2021/06/03 08:17:35;;;;;;;1.00;0.82;;;;;;;27.74;40.74;101645.38;5071739;28;20552;-67
2021/06/03 08:20:04;;;;;;;2.47;0.95;;;;;;;27.71;40.47;101653.63;5071947;28;20060;-67
2021/06/03 08:22:31;;;;;;;3.03;1.05;;;;;;;27.76;41.03;101654.31;5072328;28;20039;-67
2021/06/03 08:24:58;;;;;;;4.20;0.80;;;;;;;28.41;39.99;101637.06;5071625;28;20044;-68
2021/06/03 08:27:25;;;;;;;4.40;0.60;;;;;;;28.84;39.47;101652.31;5071064;28;20041;-67
2021/06/03 08:29:52;;;;;;;1.88;0.70;;;;;;;28.93;39.54;101661.91;5071867;28;20048;-67
2021/06/03 08:32:21;;;;;;;4.05;0.90;;;;;;;29.30;38.70;101650.16;5068922;28;20041;-67
2021/06/03 08:34:49;;;;;;;3.53;0.60;;;;;;;29.55;38.55;101649.88;5071840;28;20504;-68
2021/06/03 08:37:16;;;;;;;1.70;0.68;;;;;;;29.99;37.90;101654.03;5071605;28;20047;-67
2021/06/03 08:39:43;;;;;;;2.03;0.50;;;;;;;30.34;37.00;101662.19;5071322;28;20123;-67
2021/06/03 08:42:13;;;;;;;4.78;0.80;;;;;;;30.03;37.41;101657.47;5071104;28;20527;-67
2021/06/03 08:44:40;;;;;;;3.38;0.98;;;;;;;29.63;37.68;101664.00;5071320;28;20052;-67
2021/06/03 08:47:08;;;;;;;1.77;0.88;;;;;;;29.12;37.76;101665.53;5071215;28;20047;-66
2021/06/03 08:49:38;;;;;;;3.72;0.70;;;;;;;29.11;38.75;101673.75;5071393;28;20044;-68
2021/06/03 08:52:07;;;;;;;7.13;1.10;;;;;;;28.91;38.58;101670.13;5071069;28;20150;-67
2021/06/03 08:54:35;;;;;;;3.38;0.85;;;;;;;28.40;39.70;101667.00;5071296;28;20058;-67
2021/06/03 08:57:07;;;;;;;3.65;0.90;;;;;;;28.81;39.42;101673.34;5070756;28;20059;-67
2021/06/03 08:59:34;;;;;;;2.13;0.80;;;;;;;29.40;38.58;101673.31;5070792;28;20032;-67
2021/06/03 09:02:01;;;;;;;2.08;0.90;;;;;;;29.73;37.86;101667.16;5069939;28;20438;-67
2021/06/03 09:04:28;;;;;;;3.28;0.90;;;;;;;29.90;37.49;101673.50;5070427;28;20391;-67
2021/06/03 09:06:56;;;;;;;3.15;1.08;;;;;;;29.85;38.01;101650.19;5070840;28;20131;-67
2021/06/03 09:09:27;;;;;;;1.08;0.63;;;;;;;29.64;38.33;101655.75;5071013;28;20116;-67
2021/06/03 09:12:10;;;;;;;3.47;0.90;;;;;;;29.74;37.83;101661.63;5070910;28;20071;-67
2021/06/03 09:14:38;;;;;;;2.25;0.80;;;;;;;29.49;38.15;101669.22;5069949;28;20044;-67
2021/06/03 09:17:05;;;;;;;4.60;0.98;;;;;;;29.72;37.85;101674.44;5070882;28;20136;-67
2021/06/03 09:19:33;;;;;;;3.45;1.02;;;;;;;29.78;37.94;101668.69;5070702;28;20040;-67
2021/06/03 09:22:02;;;;;;;4.82;1.05;;;;;;;30.09;37.78;101652.59;5070873;28;20083;-67
2021/06/03 09:24:33;;;;;;;3.65;0.85;;;;;;;29.87;37.51;101662.75;5070751;28;20555;-67
2021/06/03 09:27:03;;;;;;;1.75;1.08;;;;;;;29.52;37.88;101659.09;5070321;28;20032;-68
2021/06/03 09:29:31;;;;;;;1.40;0.73;;;;;;;29.62;38.01;101651.34;5070328;28;20041;-68
2021/06/03 09:32:04;;;;;;;5.47;1.10;;;;;;;29.51;38.13;101651.00;5070403;28;20119;-67
2021/06/03 09:34:31;;;;;;;2.53;0.80;;;;;;;29.05;38.57;101639.56;5070291;28;20036;-67
2021/06/03 09:37:02;;;;;;;1.88;0.80;;;;;;;28.90;38.46;101649.31;5070510;28;20552;-67
2021/06/03 09:39:30;;;;;;;3.30;0.93;;;;;;;29.15;38.42;101659.03;5070548;28;20097;-66
2021/06/03 09:42:00;;;;;;;1.98;0.77;;;;;;;28.89;39.05;101657.53;5069453;28;20033;-67
2021/06/03 09:44:30;;;;;;;2.63;0.85;;;;;;;28.63;38.73;101650.56;5069968;28;20044;-67
2021/06/03 09:47:03;;;;;;;3.10;0.93;;;;;;;28.90;38.64;101656.59;5070413;28;20040;-67
2021/06/03 09:49:32;;;;;;;3.00;0.88;;;;;;;29.05;39.31;101660.44;5069749;28;20043;-66
2021/06/03 09:52:03;;;;;;;2.92;1.10;;;;;;;29.01;38.82;101643.41;5070254;28;20037;-67
2021/06/03 09:54:31;;;;;;;3.03;1.20;;;;;;;29.22;38.43;101646.91;5067551;28;20113;-67
2021/06/03 09:57:01;;;;;;;1.52;0.85;;;;;;;29.40;38.35;101661.53;5067351;28;20489;-67
2021/06/03 09:59:30;;;;;;;5.57;0.98;;;;;;;29.40;38.50;101658.81;5068721;28;20151;-66
2021/06/03 10:02:03;;;;;;;3.88;0.90;;;;;;;29.35;38.73;101660.84;5069222;28;20536;-67
2021/06/03 10:04:34;;;;;;;2.03;0.85;;;;;;;29.31;38.71;101650.09;5069647;28;20056;-67
2021/06/03 10:07:20;;;;;;;3.28;1.25;;;;;;;29.29;37.77;101659.28;5069272;28;20064;-67
2021/06/03 10:09:58;;;;;;;3.95;1.30;;;;;;;29.14;38.41;101655.47;5068667;28;20451;-66
2021/06/03 10:12:37;;;;;;;2.35;1.17;;;;;;;29.16;38.92;101655.38;5069337;28;20044;-66
2021/06/03 10:15:09;;;;;;;3.78;0.90;;;;;;;29.23;38.54;101643.25;5060652;28;20123;-67
2021/06/03 10:17:38;;;;;;;2.97;1.23;;;;;;;29.10;39.05;101644.78;5049374;28;20677;-67
2021/06/03 10:20:10;;;;;;;4.63;1.10;;;;;;;29.07;39.07;101658.53;5064104;28;20048;-67
2021/06/03 10:22:40;;;;;;;3.38;1.00;;;;;;;28.82;39.48;101658.78;5065297;28;20043;-67
2021/06/03 10:25:11;;;;;;;2.10;1.17;;;;;;;28.67;39.42;101649.47;5069204;28;20041;-66
2021/06/03 10:27:40;;;;;;;2.58;1.10;;;;;;;28.60;39.63;101655.25;5068452;28;20032;-66
2021/06/03 10:30:11;;;;;;;2.38;1.00;;;;;;;28.50;39.84;101654.78;5069229;28;20052;-67
2021/06/03 10:32:39;;;;;;;3.90;1.30;;;;;;;28.48;40.04;101652.16;5068771;28;20048;-67
2021/06/03 10:35:09;;;;;;;2.25;0.90;;;;;;;28.76;39.46;101646.34;5069090;28;20068;-67
2021/06/03 10:37:39;;;;;;;2.50;1.10;;;;;;;28.79;38.59;101648.94;5068427;28;20045;-67
2021/06/03 10:40:08;;;;;;;3.95;1.23;;;;;;;28.67;38.99;101626.84;5069201;28;20488;-67
2021/06/03 10:42:36;;;;;;;4.28;1.17;;;;;;;28.77;39.84;101633.66;5068980;28;20086;-67
2021/06/03 10:45:07;;;;;;;3.50;1.20;;;;;;;28.98;38.83;101638.09;5068473;28;20128;-67
2021/06/03 10:47:34;;;;;;;2.42;1.15;;;;;;;28.84;38.66;101635.13;5068653;28;20054;-67
2021/06/03 10:50:03;;;;;;;1.88;1.02;;;;;;;28.86;38.78;101625.06;5068981;28;20064;-68
2021/06/03 10:52:31;;;;;;;3.42;1.33;;;;;;;28.82;39.26;101637.91;5068648;28;20040;-67
2021/06/03 10:55:00;;;;;;;3.47;1.10;;;;;;;28.92;39.33;101631.09;5068066;28;20047;-67
2021/06/03 10:57:50;;;;;;;2.30;1.10;;;;;;;29.26;39.18;101630.41;5069093;28;20094;-67
2021/06/03 11:00:30;;;;;;;3.22;1.13;;;;;;;29.13;39.18;101623.78;5068219;28;20050;-67
2021/06/03 11:02:59;;;;;;;3.45;0.88;;;;;;;29.25;38.43;101622.28;5068456;28;20071;-67
2021/06/03 11:05:29;;;;;;;1.70;1.20;;;;;;;29.40;37.56;101624.31;5068972;28;20120;-68
2021/06/03 11:07:56;;;;;;;2.08;1.20;;;;;;;29.37;37.78;101624.44;5068498;28;20139;-67
2021/06/03 11:10:30;;;;;;;4.22;1.25;;;;;;;29.58;37.42;101615.22;5068237;28;20045;-66
2021/06/03 11:13:14;;;;;;;4.28;1.05;;;;;;;29.88;37.27;101612.78;5068521;28;20037;-67
2021/06/03 11:16:04;;;;;;;4.60;1.23;;;;;;;30.19;37.09;101614.84;5064332;28;20049;-66
2021/06/03 11:19:07;;;;;;;2.95;1.20;;;;;;;30.49;36.62;101613.25;5068011;28;20043;-67
2021/06/03 11:22:10;;;;;;;1.55;1.02;;;;;;;30.84;35.98;101615.91;5067299;28;20045;-66
2021/06/03 11:24:47;;;;;;;3.20;1.08;;;;;;;30.86;36.27;101625.75;5041715;28;20040;-67
2021/06/03 11:27:18;;;;;;;1.13;0.80;;;;;;;30.52;36.21;101612.22;5065212;28;20076;-67
2021/06/03 11:29:59;;;;;;;2.45;0.77;;;;;;;30.52;36.16;101609.50;5068148;28;20123;-67
2021/06/03 11:32:28;;;;;;;1.13;0.65;;;;;;;30.74;36.03;101617.34;5067928;28;20040;-67
2021/06/03 11:34:57;;;;;;;3.08;0.80;;;;;;;31.04;35.18;101614.78;5067238;28;20043;-67